createdAt,value
2022-11-07T00:00:20.736Z,100995.75
2022-11-07T00:02:51.383Z,100998.94
2022-11-07T00:05:21.984Z,100988.47
2022-11-07T00:07:52.696Z,100993.69
2022-11-07T00:10:24.845Z,100992.88
2022-11-07T00:12:54.331Z,100985.59
2022-11-07T00:15:24.443Z,100983.97
2022-11-07T00:17:54.374Z,100981.50
2022-11-07T00:20:25.222Z,100990.38
2022-11-07T00:22:55.750Z,100985.13
2022-11-07T00:25:28.346Z,100982.31
2022-11-07T00:27:58.834Z,100981.88
2022-11-07T00:30:29.573Z,100986.69
2022-11-07T00:33:00.455Z,100977.81
2022-11-07T00:35:30.920Z,100987.50
2022-11-07T00:38:01.624Z,100980.56
2022-11-07T00:40:33.694Z,100980.16
2022-11-07T00:43:04.440Z,100982.56
2022-11-07T00:45:34.403Z,100974.47
2022-11-07T00:48:05.282Z,100971.56
2022-11-07T00:50:35.794Z,100968.72
2022-11-07T00:53:06.485Z,100970.31
2022-11-07T00:55:39.195Z,100967.03
2022-11-07T00:58:13.875Z,100964.63
2022-11-07T01:00:45.545Z,100968.22
2022-11-07T01:03:34.102Z,100962.13
2022-11-07T01:06:13.248Z,100960.88
2022-11-07T01:08:43.375Z,100953.97
2022-11-07T01:11:16.762Z,100963.25
2022-11-07T01:13:47.385Z,100959.59
2022-11-07T01:16:17.976Z,100968.09
2022-11-07T01:18:48.420Z,100962.38
2022-11-07T01:21:19.165Z,100960.72
2022-11-07T01:23:50.289Z,100961.94
2022-11-07T01:26:23.018Z,100962.72
2022-11-07T01:28:53.677Z,100964.75
2022-11-07T01:31:24.367Z,100959.47
2022-11-07T01:33:54.560Z,100963.13
2022-11-07T01:36:24.980Z,100969.59
2022-11-07T01:38:55.979Z,100963.94
2022-11-07T01:41:31.168Z,100966.75
2022-11-07T01:44:05.709Z,100973.63
2022-11-07T01:46:39.689Z,100967.56
2022-11-07T01:49:15.394Z,100965.09
2022-11-07T01:51:51.829Z,100961.47
2022-11-07T01:54:29.377Z,100963.47
2022-11-07T01:57:09.581Z,100964.72
2022-11-07T01:59:41.879Z,100969.94
2022-11-07T02:02:13.354Z,100962.22
2022-11-07T02:04:43.949Z,100967.44
2022-11-07T02:07:22.144Z,100978.34
2022-11-07T02:09:55.356Z,100967.78
2022-11-07T02:12:30.244Z,100967.75
2022-11-07T02:15:00.626Z,100966.50
2022-11-07T02:17:33.241Z,100970.91
2022-11-07T02:20:04.130Z,100970.88
2022-11-07T02:22:43.871Z,100971.25
2022-11-07T02:25:19.159Z,100975.28
2022-11-07T02:27:54.318Z,100968.78
2022-11-07T02:30:29.674Z,100968.00
2022-11-07T02:32:59.847Z,100969.19
2022-11-07T02:35:42.825Z,100965.91
2022-11-07T02:38:27.478Z,100959.84
2022-11-07T02:41:09.227Z,100955.31
2022-11-07T02:43:45.932Z,100958.09
2022-11-07T02:46:18.237Z,100952.03
2022-11-07T02:48:51.463Z,100950.78
2022-11-07T02:51:22.239Z,100954.81
2022-11-07T02:53:52.733Z,100945.53
2022-11-07T02:56:25.347Z,100951.94
2022-11-07T02:58:56.194Z,100949.03
2022-11-07T03:01:27.059Z,100945.75
2022-11-07T03:03:57.633Z,100944.97
2022-11-07T03:06:29.151Z,100948.16
2022-11-07T03:08:59.176Z,100943.72
2022-11-07T03:11:32.595Z,100946.91
2022-11-07T03:14:03.062Z,100948.09
2022-11-07T03:16:33.756Z,100949.69
2022-11-07T03:19:04.287Z,100955.72
2022-11-07T03:21:34.910Z,100949.25
2022-11-07T03:24:05.532Z,100955.72
2022-11-07T03:26:38.198Z,100953.72
2022-11-07T03:29:08.395Z,100945.63
2022-11-07T03:31:38.731Z,100954.09
2022-11-07T03:34:09.223Z,100954.09
2022-11-07T03:36:40.191Z,100948.41
2022-11-07T03:39:11.052Z,100947.56
2022-11-07T03:41:43.920Z,100944.31
2022-11-07T03:44:14.688Z,100948.34
2022-11-07T03:46:45.368Z,100943.91
2022-11-07T03:49:16.163Z,100943.06
2022-11-07T03:51:46.809Z,100941.06
2022-11-07T03:54:17.066Z,100943.91
2022-11-07T03:56:52.658Z,100939.44
2022-11-07T03:59:22.630Z,100941.44
2022-11-07T04:01:53.545Z,100944.66
2022-11-07T04:04:24.331Z,100948.66
2022-11-07T04:06:54.812Z,100949.84
2022-11-07T04:09:25.434Z,100950.25
2022-11-07T04:12:22.836Z,100952.25
2022-11-07T04:15:09.514Z,100946.97
2022-11-07T04:17:40.755Z,100954.66
2022-11-07T04:20:12.934Z,100958.28
2022-11-07T04:22:43.613Z,100961.09
2022-11-07T04:25:14.355Z,100964.38
2022-11-07T04:27:45.143Z,100956.69
2022-11-07T04:30:27.324Z,100958.72
2022-11-07T04:33:01.216Z,100958.72
2022-11-07T04:35:34.645Z,100951.44
2022-11-07T04:38:05.005Z,100957.09
2022-11-07T04:40:34.972Z,100964.72
2022-11-07T04:43:09.627Z,100963.94
2022-11-07T04:45:42.610Z,100963.13
2022-11-07T04:48:13.291Z,100968.78
2022-11-07T04:50:44.389Z,100963.88
2022-11-07T04:53:16.256Z,100964.31
2022-11-07T04:55:48.936Z,100963.94
2022-11-07T04:58:21.515Z,100971.66
2022-11-07T05:00:51.991Z,100975.72
2022-11-07T05:03:22.490Z,100970.13
2022-11-07T05:05:53.315Z,100970.19
2022-11-07T05:08:23.870Z,100968.66
2022-11-07T05:10:54.641Z,100969.56
2022-11-07T05:13:27.159Z,100974.19
2022-11-07T05:15:58.082Z,100968.22
2022-11-07T05:18:28.015Z,100976.44
2022-11-07T05:20:59.033Z,100980.97
2022-11-07T05:23:29.443Z,100977.03
2022-11-07T05:26:00.069Z,100973.13
2022-11-07T05:28:39.138Z,100978.59
2022-11-07T05:31:13.529Z,100974.69
2022-11-07T05:33:43.562Z,100970.78
2022-11-07T05:36:17.862Z,100971.31
2022-11-07T05:38:51.110Z,100971.44
2022-11-07T05:41:24.419Z,100974.81
2022-11-07T05:43:56.493Z,100975.75
2022-11-07T05:46:27.038Z,100979.47
2022-11-07T05:49:00.896Z,100978.34
2022-11-07T05:51:31.838Z,100980.50
2022-11-07T05:54:02.206Z,100980.22
2022-11-07T05:56:32.956Z,100982.34
2022-11-07T05:59:06.488Z,100982.81
2022-11-07T06:01:37.043Z,100975.59
2022-11-07T06:04:07.771Z,100982.53
2022-11-07T06:06:38.055Z,100982.22
2022-11-07T06:09:08.149Z,100978.25
2022-11-07T06:11:38.707Z,100981.91
2022-11-07T06:14:10.855Z,100980.75
2022-11-07T06:16:40.941Z,100984.88
2022-11-07T06:19:10.664Z,100980.88
2022-11-07T06:21:40.798Z,100985.34
2022-11-07T06:24:15.240Z,100978.88
2022-11-07T06:26:46.520Z,100977.25
2022-11-07T06:29:18.726Z,100984.13
2022-11-07T06:31:49.693Z,100985.38
2022-11-07T06:34:20.330Z,100977.66
2022-11-07T06:37:02.599Z,100981.72
2022-11-07T06:39:33.776Z,100979.25
2022-11-07T06:42:04.379Z,100980.88
2022-11-07T06:44:36.363Z,100971.91
2022-11-07T06:47:06.449Z,100975.53
2022-11-07T06:49:36.582Z,100971.41
2022-11-07T06:52:07.483Z,100976.69
2022-11-07T06:54:38.500Z,100981.97
2022-11-07T06:57:08.904Z,100982.75
2022-11-07T06:59:40.748Z,100974.22
2022-11-07T07:02:25.964Z,100979.47
2022-11-07T07:05:05.744Z,100973.78
2022-11-07T07:07:36.737Z,100976.63
2022-11-07T07:10:08.534Z,100974.59
2022-11-07T07:12:38.769Z,100974.59
2022-11-07T07:15:13.112Z,100972.97
2022-11-07T07:17:44.278Z,100969.31
2022-11-07T07:20:15.376Z,100970.94
2022-11-07T07:22:51.979Z,100970.09
2022-11-07T07:25:27.860Z,100969.66
2022-11-07T07:27:59.773Z,100961.94
2022-11-07T07:30:31.868Z,100955.06
2022-11-07T07:33:02.492Z,100954.25
2022-11-07T07:35:32.358Z,100953.03
2022-11-07T07:38:02.885Z,100949.00
2022-11-07T07:40:33.737Z,100946.97
2022-11-07T07:43:04.482Z,100940.50
2022-11-07T07:45:38.515Z,100951.84
2022-11-07T07:48:09.458Z,100949.03
2022-11-07T07:50:39.697Z,100942.50
2022-11-07T07:53:10.612Z,100945.34
2022-11-07T07:55:41.038Z,100948.59
2022-11-07T07:58:11.930Z,100936.81
2022-11-07T08:00:44.113Z,100934.41
2022-11-07T08:03:15.946Z,100927.91
2022-11-07T08:05:47.145Z,100928.31
2022-11-07T08:08:17.335Z,100925.88
2022-11-07T08:10:53.796Z,100927.41
2022-11-07T08:13:26.053Z,100916.47
2022-11-07T08:15:58.998Z,100919.75
2022-11-07T08:18:29.589Z,100916.91
2022-11-07T08:21:00.444Z,100910.84
2022-11-07T08:23:31.707Z,100909.22
2022-11-07T08:26:04.944Z,100908.44
2022-11-07T08:28:38.759Z,100907.25
2022-11-07T08:31:14.553Z,100897.53
2022-11-07T08:33:47.516Z,100889.44
2022-11-07T08:36:18.350Z,100893.53
2022-11-07T08:38:49.124Z,100897.19
2022-11-07T08:41:22.376Z,100894.34
2022-11-07T08:43:52.873Z,100879.78
2022-11-07T08:46:25.036Z,100876.94
2022-11-07T08:48:55.740Z,100882.19
2022-11-07T08:51:26.126Z,100881.41
2022-11-07T08:53:55.970Z,100878.56
2022-11-07T08:56:26.206Z,100883.44
2022-11-07T08:58:56.706Z,100891.56
2022-11-07T09:01:28.765Z,100889.16
2022-11-07T09:04:00.251Z,100886.72
2022-11-07T09:06:33.147Z,100873.34
2022-11-07T09:09:06.952Z,100869.69
2022-11-07T09:11:37.018Z,100870.91
2022-11-07T09:14:07.381Z,100867.25
2022-11-07T09:16:39.937Z,100859.53
2022-11-07T09:19:11.087Z,100849.41
2022-11-07T09:21:43.319Z,100850.22
2022-11-07T09:24:13.624Z,100843.31
2022-11-07T09:26:45.253Z,100845.75
2022-11-07T09:29:16.018Z,100847.38
2022-11-07T09:31:49.326Z,100835.59
2022-11-07T09:34:20.126Z,100831.94
2022-11-07T09:36:56.922Z,100832.34
2022-11-07T09:39:29.104Z,100826.28
2022-11-07T09:42:13.955Z,100828.28
2022-11-07T09:45:06.731Z,100821.81
2022-11-07T09:47:59.963Z,100827.50
2022-11-07T09:50:42.105Z,100823.81
2022-11-07T09:53:25.203Z,100823.81
2022-11-07T09:56:00.298Z,100822.19
2022-11-07T09:58:37.664Z,100817.34
2022-11-07T10:01:12.921Z,100811.66
2022-11-07T10:04:22.492Z,100819.34
2022-11-07T10:06:54.078Z,100814.09
2022-11-07T10:09:37.383Z,100812.47
2022-11-07T10:12:28.087Z,100823.03
2022-11-07T10:15:13.329Z,100807.59
2022-11-07T10:17:59.852Z,100806.38
2022-11-07T10:21:10.189Z,100793.81
2022-11-07T10:24:01.389Z,100804.75
2022-11-07T10:26:34.042Z,100791.78
2022-11-07T10:29:15.430Z,100798.66
2022-11-07T10:31:54.279Z,100786.94
2022-11-07T10:34:34.078Z,100780.41
2022-11-07T10:37:08.121Z,100784.88
2022-11-07T10:39:39.222Z,100776.78
2022-11-07T10:42:18.665Z,100779.63
2022-11-07T10:44:50.812Z,100772.69
2022-11-07T10:47:24.159Z,100780.00
2022-11-07T10:50:00.121Z,100768.66
2022-11-07T10:52:33.528Z,100769.47
2022-11-07T10:55:17.313Z,100767.44
2022-11-07T10:57:55.362Z,100774.31
2022-11-07T11:00:29.616Z,100774.75
2022-11-07T11:03:01.166Z,100771.50
2022-11-07T11:05:45.160Z,100775.56
2022-11-07T11:08:21.490Z,100769.88
2022-11-07T11:10:53.282Z,100769.09
2022-11-07T11:13:31.658Z,100774.75
2022-11-07T11:16:23.925Z,100763.41
2022-11-07T11:18:57.063Z,100760.56
2022-11-07T11:21:29.020Z,100763.41
2022-11-07T11:24:01.572Z,100756.50
2022-11-07T11:26:40.133Z,100750.00
2022-11-07T11:29:17.547Z,100755.28
2022-11-07T11:31:54.266Z,100754.84
2022-11-07T11:34:36.351Z,100760.09
2022-11-07T11:37:13.461Z,100762.16
2022-11-07T11:39:52.185Z,100766.63
2022-11-07T11:42:48.019Z,100768.63
2022-11-07T11:45:32.734Z,100764.19
2022-11-07T11:48:13.423Z,100760.94
2022-11-07T11:50:52.517Z,100758.50
2022-11-07T11:53:25.647Z,100766.22
2022-11-07T11:56:24.402Z,100761.34
2022-11-07T11:59:11.960Z,100750.41
2022-11-07T12:01:56.908Z,100761.75
2022-11-07T12:04:45.843Z,100754.03
2022-11-07T12:07:46.192Z,100760.09
2022-11-07T12:10:28.716Z,100756.88
2022-11-07T12:13:16.894Z,100761.72
2022-11-07T12:16:03.046Z,100767.41
2022-11-07T12:18:43.702Z,100767.81
2022-11-07T12:21:34.439Z,100763.34
2022-11-07T12:24:27.990Z,100761.72
2022-11-07T12:27:09.160Z,100761.72
2022-11-07T12:30:05.359Z,100765.78
2022-11-07T12:32:54.107Z,100758.91
2022-11-07T12:35:45.237Z,100755.66
2022-11-07T12:39:01.071Z,100763.34
2022-11-07T12:41:47.745Z,100764.97
2022-11-07T12:44:43.146Z,100758.91
2022-11-07T12:47:36.362Z,100754.44
2022-11-07T12:50:26.038Z,100750.78
2022-11-07T12:53:16.400Z,100751.59
2022-11-07T12:55:52.693Z,100747.94
2022-11-07T12:58:29.450Z,100741.03
2022-11-07T13:01:01.103Z,100748.75
2022-11-07T13:03:57.960Z,100738.63
2022-11-07T13:06:40.189Z,100744.69
2022-11-07T13:09:28.119Z,100743.06
2022-11-07T13:12:11.586Z,100743.06
2022-11-07T13:14:44.688Z,100737.00
2022-11-07T13:17:23.989Z,100742.66
2022-11-07T13:20:09.337Z,100733.31
2022-11-07T13:22:46.626Z,100740.19
2022-11-07T13:25:31.221Z,100741.41
2022-11-07T13:28:26.320Z,100737.75
2022-11-07T13:31:06.558Z,100735.34
2022-11-07T13:33:39.720Z,100738.56
2022-11-07T13:36:30.850Z,100739.38
2022-11-07T13:39:03.157Z,100733.28
2022-11-07T13:41:33.828Z,100730.03
2022-11-07T13:44:09.293Z,100745.03
2022-11-07T13:46:50.092Z,100735.72
2022-11-07T13:49:28.717Z,100733.28
2022-11-07T13:52:09.392Z,100728.84
2022-11-07T13:54:52.254Z,100726.38
2022-11-07T13:57:31.629Z,100720.69
2022-11-07T14:00:14.125Z,100731.25
2022-11-07T14:02:55.853Z,100733.66
2022-11-07T14:05:30.615Z,100738.13
2022-11-07T14:08:10.173Z,100738.13
2022-11-07T14:10:46.903Z,100738.13
2022-11-07T14:13:25.880Z,100732.47
2022-11-07T14:15:59.314Z,100735.69
2022-11-07T14:18:35.208Z,100732.84
2022-11-07T14:21:05.187Z,100736.09
2022-11-07T14:23:37.746Z,100729.63
2022-11-07T14:26:21.687Z,100737.72
2022-11-07T14:28:54.342Z,100737.28
2022-11-07T14:31:31.851Z,100732.81
2022-11-07T14:34:04.002Z,100740.13
2022-11-07T14:36:34.264Z,100736.88
2022-11-07T14:39:14.456Z,100735.25
2022-11-07T14:41:48.349Z,100732.00
2022-11-07T14:44:28.483Z,100738.06
2022-11-07T14:47:03.311Z,100749.00
2022-11-07T14:49:41.559Z,100742.09
2022-11-07T14:52:23.163Z,100738.44
2022-11-07T14:55:07.904Z,100732.75
2022-11-07T14:57:41.729Z,100731.09
2022-11-07T15:00:20.405Z,100740.00
2022-11-07T15:02:55.088Z,100736.75
2022-11-07T15:05:29.861Z,100732.72
2022-11-07T15:08:02.994Z,100731.88
2022-11-07T15:10:46.199Z,100728.66
2022-11-07T15:13:34.344Z,100739.94
2022-11-07T15:16:12.940Z,100730.22
2022-11-07T15:18:56.884Z,100724.97
2022-11-07T15:21:43.444Z,100728.19
2022-11-07T15:24:48.448Z,100733.84
2022-11-07T15:27:38.014Z,100737.88
2022-11-07T15:30:33.067Z,100732.19
2022-11-07T15:33:41.515Z,100734.22
2022-11-07T15:36:26.193Z,100741.50
2022-11-07T15:39:25.682Z,100742.72
2022-11-07T15:42:22.419Z,100739.06
2022-11-07T15:45:29.018Z,100730.13
2022-11-07T15:48:13.069Z,100729.31
2022-11-07T15:51:00.399Z,100732.56
2022-11-07T15:53:39.002Z,100729.31
2022-11-07T15:56:32.198Z,100733.72
2022-11-07T15:59:23.133Z,100728.88
2022-11-07T16:02:09.915Z,100732.91
2022-11-07T16:04:47.766Z,100733.66
2022-11-07T16:07:41.229Z,100734.06
2022-11-07T16:10:25.278Z,100739.69
2022-11-07T16:13:00.880Z,100738.06
2022-11-07T16:15:33.412Z,100736.44
2022-11-07T16:18:05.722Z,100733.97
2022-11-07T16:20:36.445Z,100729.94
2022-11-07T16:23:07.471Z,100725.03
2022-11-07T16:25:40.995Z,100723.81
2022-11-07T16:28:27.699Z,100722.19
2022-11-07T16:30:58.613Z,100725.00
2022-11-07T16:33:32.488Z,100721.38
2022-11-07T16:36:05.938Z,100714.09
2022-11-07T16:38:49.597Z,100716.94
2022-11-07T16:41:21.119Z,100717.31
2022-11-07T16:43:52.875Z,100711.25
2022-11-07T16:46:26.363Z,100704.75
2022-11-07T16:49:06.486Z,100700.28
2022-11-07T16:51:36.573Z,100703.09
2022-11-07T16:54:07.305Z,100709.53
2022-11-07T16:56:40.576Z,100707.13
2022-11-07T16:59:19.987Z,100708.31
2022-11-07T17:01:52.314Z,100704.69
2022-11-07T17:04:24.422Z,100714.38
2022-11-07T17:06:55.260Z,100720.06
2022-11-07T17:09:28.289Z,100709.94
2022-11-07T17:11:58.619Z,100720.81
2022-11-07T17:14:30.114Z,100713.16
2022-11-07T17:17:03.966Z,100719.19
2022-11-07T17:19:36.094Z,100713.50
2022-11-07T17:22:07.239Z,100715.47
2022-11-07T17:24:38.111Z,100709.78
2022-11-07T17:27:22.188Z,100697.69
2022-11-07T17:29:54.294Z,100705.69
2022-11-07T17:32:24.886Z,100705.28
2022-11-07T17:35:25.599Z,100701.22
2022-11-07T17:37:47.809Z,100706.44
2022-11-07T17:40:27.523Z,100705.66
2022-11-07T17:43:01.350Z,100699.97
2022-11-07T17:45:32.657Z,100702.38
2022-11-07T17:48:03.202Z,100699.53
2022-11-07T17:50:35.790Z,100693.84
2022-11-07T17:53:09.317Z,100712.38
2022-11-07T17:55:39.646Z,100708.31
2022-11-07T17:58:13.435Z,100702.25
2022-11-07T18:00:43.786Z,100707.47
2022-11-07T18:03:14.856Z,100697.38
2022-11-07T18:05:47.646Z,100703.84
2022-11-07T18:08:38.448Z,100704.63
2022-11-07T18:11:10.327Z,100696.53
2022-11-07T18:13:41.606Z,100690.44
2022-11-07T18:16:17.256Z,100687.19
2022-11-07T18:18:48.782Z,100681.13
2022-11-07T18:21:21.696Z,100685.16
2022-11-07T18:23:52.549Z,100681.50
2022-11-07T18:26:27.795Z,100678.69
2022-11-07T18:28:58.616Z,100679.09
2022-11-07T18:31:29.343Z,100671.81
2022-11-07T18:34:08.825Z,100678.66
2022-11-07T18:36:43.564Z,100676.22
2022-11-07T18:39:18.952Z,100668.50
2022-11-07T18:41:49.604Z,100672.94
2022-11-07T18:44:21.507Z,100668.91
2022-11-07T18:46:52.279Z,100665.66
2022-11-07T18:49:21.968Z,100667.66
2022-11-07T18:51:54.133Z,100668.88
2022-11-07T18:54:26.338Z,100671.28
2022-11-07T18:56:56.800Z,100665.97
2022-11-07T18:59:28.568Z,100662.34
2022-11-07T19:01:58.309Z,100657.09
2022-11-07T19:04:28.853Z,100670.00
2022-11-07T19:07:01.618Z,100678.88
2022-11-07T19:09:34.953Z,100669.59
2022-11-07T19:12:05.566Z,100682.91
2022-11-07T19:14:36.564Z,100688.13
2022-11-07T19:17:07.331Z,100681.25
2022-11-07T19:19:37.553Z,100684.81
2022-11-07T19:22:12.968Z,100686.84
2022-11-07T19:24:43.850Z,100679.97
2022-11-07T19:27:14.640Z,100680.75
2022-11-07T19:29:45.105Z,100678.31
2022-11-07T19:32:15.567Z,100681.09
2022-11-07T19:34:46.403Z,100675.81
2022-11-07T19:37:18.349Z,100689.13
2022-11-07T19:39:48.542Z,100680.59
2022-11-07T19:42:19.162Z,100674.88
2022-11-07T19:44:55.461Z,100676.47
2022-11-07T19:47:26.368Z,100672.44
2022-11-07T19:49:56.599Z,100673.63
2022-11-07T19:52:29.402Z,100659.06
2022-11-07T19:54:59.722Z,100656.22
2022-11-07T19:57:31.370Z,100665.06
2022-11-07T20:00:02.923Z,100665.88
2022-11-07T20:02:38.766Z,100664.69
2022-11-07T20:05:13.070Z,100665.47
2022-11-07T20:07:46.275Z,100670.75
2022-11-07T20:10:18.412Z,100667.94
2022-11-07T20:12:49.234Z,100665.13
2022-11-07T20:15:19.867Z,100668.75
2022-11-07T20:17:54.972Z,100670.75
2022-11-07T20:20:27.148Z,100677.59
2022-11-07T20:23:00.811Z,100676.78
2022-11-07T20:25:33.111Z,100670.34
2022-11-07T20:28:04.542Z,100680.44
2022-11-07T20:30:35.655Z,100677.19
2022-11-07T20:33:10.733Z,100679.19
2022-11-07T20:35:41.450Z,100675.97
2022-11-07T20:38:13.768Z,100684.06
2022-11-07T20:40:43.897Z,100683.69
2022-11-07T20:43:14.942Z,100690.56
2022-11-07T20:45:49.067Z,100684.91
2022-11-07T20:48:20.593Z,100690.19
2022-11-07T20:50:51.920Z,100691.44
2022-11-07T20:53:24.932Z,100681.75
2022-11-07T20:55:55.935Z,100677.72
2022-11-07T20:58:28.758Z,100682.97
2022-11-07T21:00:59.450Z,100682.13
2022-11-07T21:03:30.458Z,100684.16
2022-11-07T21:06:01.063Z,100684.97
2022-11-07T21:08:37.215Z,100672.84
2022-11-07T21:11:08.229Z,100673.22
2022-11-07T21:13:39.671Z,100667.56
2022-11-07T21:16:11.717Z,100659.50
2022-11-07T21:18:42.099Z,100659.91
2022-11-07T21:21:16.753Z,100659.91
2022-11-07T21:23:50.616Z,100653.41
2022-11-07T21:26:28.941Z,100647.34
2022-11-07T21:29:00.947Z,100648.94
2022-11-07T21:31:33.738Z,100645.72
2022-11-07T21:34:04.742Z,100643.28
2022-11-07T21:36:34.793Z,100636.84
2022-11-07T21:39:08.088Z,100620.66
2022-11-07T21:41:39.490Z,100617.78
2022-11-07T21:44:10.355Z,100613.75
2022-11-07T21:46:40.561Z,100609.63
2022-11-07T21:49:10.765Z,100627.34
2022-11-07T21:51:41.425Z,100615.19
2022-11-07T21:54:14.241Z,100607.88
2022-11-07T21:56:43.965Z,100614.69
2022-11-07T21:59:15.392Z,100606.56
2022-11-07T22:01:46.853Z,100605.34
2022-11-07T22:04:17.536Z,100605.75
2022-11-07T22:06:48.879Z,100604.56
2022-11-07T22:09:22.862Z,100589.22
2022-11-07T22:11:53.139Z,100590.00
2022-11-07T22:14:25.646Z,100585.56
2022-11-07T22:16:58.365Z,100581.09
2022-11-07T22:19:29.436Z,100597.25
2022-11-07T22:21:59.664Z,100602.47
2022-11-07T22:24:31.316Z,100608.09
2022-11-07T22:27:01.376Z,100622.22
2022-11-07T22:29:32.042Z,100622.59
2022-11-07T22:32:12.688Z,100631.88
2022-11-07T22:34:42.521Z,100634.66
2022-11-07T22:37:13.302Z,100645.50
2022-11-07T22:39:45.313Z,100659.19
2022-11-07T22:42:21.032Z,100693.84
2022-11-07T22:44:54.202Z,100712.72
2022-11-07T22:47:25.072Z,100737.31
2022-11-07T22:49:55.027Z,100728.03
2022-11-07T22:52:25.166Z,100717.13
2022-11-07T22:54:57.678Z,100706.59
2022-11-07T22:57:27.856Z,100703.34
2022-11-07T23:00:06.146Z,100698.47
2022-11-07T23:02:49.806Z,100692.34
2022-11-07T23:05:20.761Z,100668.88
2022-11-07T23:07:53.987Z,100653.09
2022-11-07T23:10:26.187Z,100647.41
2022-11-07T23:12:56.952Z,100654.97
2022-11-07T23:15:27.539Z,100677.50
2022-11-07T23:17:58.287Z,100661.72
2022-11-07T23:20:44.565Z,100647.94
2022-11-07T23:23:15.196Z,100661.50
2022-11-07T23:25:47.264Z,100649.75
2022-11-07T23:28:17.441Z,100650.88
2022-11-07T23:30:52.681Z,100646.38
2022-11-07T23:33:23.753Z,100649.09
2022-11-07T23:35:54.455Z,100621.69
2022-11-07T23:38:30.293Z,100634.44
2022-11-07T23:41:05.511Z,100633.94
2022-11-07T23:43:37.326Z,100654.00
2022-11-07T23:46:25.062Z,100636.19
2022-11-07T23:49:14.750Z,100640.16
2022-11-07T23:51:48.006Z,100637.72
2022-11-07T23:54:35.083Z,100632.09
2022-11-07T23:57:07.512Z,100625.66
2022-11-07T23:59:55.245Z,100622.38
